Time;durP1;ratioP1;P1;durP2;ratioP2;P2;SDS_P1;SDS_P2;PMS_P1;PMS_P2;Temp;Humidity;BMP_temperature;BMP_pressure;BME280_temperature;BME280_humidity;BME280_pressure;Samples;Min_cycle;Max_cycle;Signal;HPM_P1;HPM_P2
2021/08/10 00:01:56;;;;;;;0.20;0.20;;;;;;;;;;6219150;23;20095;-87
2021/08/10 00:04:23;;;;;;;0.10;0.10;;;;;;;;;;6219532;23;20012;-87
2021/08/10 00:06:49;;;;;;;0.10;0.10;;;;;;;;;;6244544;22;20449;-88
2021/08/10 00:09:15;;;;;;;0.10;0.10;;;;;;;;;;6218794;23;20044;-87
2021/08/10 00:11:42;;;;;;;0.20;0.20;;;;;;;;;;6244178;23;20447;-87
2021/08/10 00:14:10;;;;;;;0.10;0.10;;;;;;;;;;6219031;23;20099;-87
2021/08/10 00:16:36;;;;;;;0.10;0.10;;;;;;;;;;6244263;22;20013;-87
2021/08/10 00:19:02;;;;;;;0.10;0.10;;;;;;;;;;6219539;23;20079;-87
2021/08/10 00:21:28;;;;;;;0.10;0.10;;;;;;;;;;6219049;23;20020;-87
2021/08/10 00:23:54;;;;;;;0.30;0.30;;;;;;;;;;6219055;23;20012;-87
2021/08/10 00:26:20;;;;;;;0.10;0.10;;;;;;;;;;6244381;23;20488;-87
2021/08/10 00:28:46;;;;;;;0.10;0.10;;;;;;;;;;6243957;22;20434;-88
2021/08/10 00:31:12;;;;;;;0.10;0.10;;;;;;;;;;6219133;23;20091;-88
2021/08/10 00:33:38;;;;;;;0.10;0.10;;;;;;;;;;6244402;23;20008;-87
2021/08/10 00:36:04;;;;;;;0.10;0.10;;;;;;;;;;6244474;23;20023;-87
2021/08/10 00:38:30;;;;;;;0.10;0.10;;;;;;;;;;6244006;22;20338;-86
2021/08/10 00:40:56;;;;;;;0.10;0.10;;;;;;;;;;6218832;23;20012;-87
2021/08/10 00:43:27;;;;;;;0.10;0.10;;;;;;;;;;6244279;23;20019;-87
2021/08/10 00:45:53;;;;;;;0.10;0.10;;;;;;;;;;6244062;23;20022;-87
2021/08/10 00:48:20;;;;;;;0.10;0.10;;;;;;;;;;6259612;22;20337;-89
2021/08/10 00:50:46;;;;;;;0.10;0.10;;;;;;;;;;6249133;22;20395;-87
2021/08/10 00:53:12;;;;;;;0.10;0.10;;;;;;;;;;6274929;22;20429;-87
2021/08/10 00:55:38;;;;;;;0.10;0.10;;;;;;;;;;6275066;22;20007;-88
2021/08/10 00:58:04;;;;;;;0.10;0.10;;;;;;;;;;6249424;22;20012;-87
2021/08/10 01:00:30;;;;;;;0.10;0.10;;;;;;;;;;6249058;22;20020;-88
2021/08/10 01:02:56;;;;;;;0.10;0.10;;;;;;;;;;6274713;22;20046;-88
2021/08/10 01:05:22;;;;;;;0.10;0.10;;;;;;;;;;6249391;22;20019;-88
2021/08/10 01:07:51;;;;;;;0.10;0.10;;;;;;;;;;6248920;22;20016;-88
2021/08/10 01:10:22;;;;;;;0.10;0.10;;;;;;;;;;6274414;22;20083;-88
2021/08/10 01:12:59;;;;;;;0.10;0.10;;;;;;;;;;6284728;22;20023;-88
2021/08/10 01:15:31;;;;;;;0.10;0.10;;;;;;;;;;6248856;22;20384;-88
2021/08/10 01:17:58;;;;;;;0.10;0.10;;;;;;;;;;6248895;22;20257;-88
2021/08/10 01:20:48;;;;;;;0.10;0.10;;;;;;;;;;6249145;22;20057;-88
2021/08/10 01:23:15;;;;;;;0.10;0.10;;;;;;;;;;6231908;22;20457;-89
2021/08/10 01:25:58;;;;;;;0.10;0.10;;;;;;;;;;6248785;22;20090;-88
2021/08/10 01:28:29;;;;;;;0.10;0.10;;;;;;;;;;6274032;22;20030;-88
2021/08/10 01:31:01;;;;;;;0.20;0.20;;;;;;;;;;6274451;22;20018;-88
2021/08/10 01:33:27;;;;;;;0.10;0.10;;;;;;;;;;6274055;22;20019;-88
2021/08/10 01:35:53;;;;;;;0.10;0.10;;;;;;;;;;6248575;22;20018;-88
2021/08/10 01:38:20;;;;;;;0.10;0.10;;;;;;;;;;6248687;22;20047;-88
2021/08/10 01:40:46;;;;;;;0.10;0.10;;;;;;;;;;6274545;22;20338;-88
2021/08/10 01:43:12;;;;;;;0.20;0.20;;;;;;;;;;6248716;22;20465;-88
2021/08/10 01:45:38;;;;;;;0.10;0.10;;;;;;;;;;6274196;22;20008;-88
2021/08/10 01:48:07;;;;;;;0.10;0.10;;;;;;;;;;6248102;22;20065;-88
2021/08/10 01:50:33;;;;;;;0.10;0.10;;;;;;;;;;6248471;22;20019;-88
2021/08/10 01:52:59;;;;;;;0.10;0.10;;;;;;;;;;6274416;22;20069;-88
2021/08/10 01:55:25;;;;;;;0.10;0.10;;;;;;;;;;6248617;22;20015;-88
2021/08/10 01:57:51;;;;;;;0.10;0.10;;;;;;;;;;6248467;22;20015;-88
2021/08/10 02:00:17;;;;;;;0.10;0.10;;;;;;;;;;6248532;22;20016;-90
2021/08/10 02:02:43;;;;;;;0.10;0.10;;;;;;;;;;6248925;22;20460;-88
2021/08/10 02:05:10;;;;;;;0.10;0.10;;;;;;;;;;6274355;22;20031;-87
2021/08/10 02:07:36;;;;;;;0.10;0.10;;;;;;;;;;6273874;22;20007;-88
2021/08/10 02:10:02;;;;;;;0.20;0.20;;;;;;;;;;6248376;22;20319;-88
2021/08/10 02:12:28;;;;;;;0.10;0.10;;;;;;;;;;6274302;22;20011;-88
2021/08/10 02:14:57;;;;;;;0.20;0.20;;;;;;;;;;6273978;22;20016;-88
2021/08/10 02:17:23;;;;;;;0.10;0.10;;;;;;;;;;6274011;22;20012;-88
2021/08/10 02:19:49;;;;;;;0.10;0.10;;;;;;;;;;6248430;22;20016;-87
2021/08/10 02:22:15;;;;;;;0.10;0.10;;;;;;;;;;6274043;22;20475;-87
2021/08/10 02:24:47;;;;;;;0.10;0.10;;;;;;;;;;6273837;22;20463;-87
2021/08/10 02:27:18;;;;;;;0.10;0.10;;;;;;;;;;6274000;22;20020;-87
2021/08/10 02:29:45;;;;;;;0.10;0.10;;;;;;;;;;6248331;22;20008;-87
2021/08/10 02:32:12;;;;;;;0.10;0.10;;;;;;;;;;6248472;22;20011;-87
2021/08/10 02:34:38;;;;;;;0.20;0.20;;;;;;;;;;6273801;22;20007;-87
2021/08/10 02:37:05;;;;;;;0.30;0.30;;;;;;;;;;6275293;22;20129;-87
2021/08/10 02:39:31;;;;;;;0.10;0.10;;;;;;;;;;6250720;22;20011;-87
2021/08/10 02:41:57;;;;;;;0.10;0.10;;;;;;;;;;6276196;22;20330;-88
2021/08/10 02:44:23;;;;;;;0.20;0.20;;;;;;;;;;6276172;22;20086;-87
2021/08/10 02:46:49;;;;;;;0.10;0.10;;;;;;;;;;6275947;22;20016;-87
2021/08/10 02:49:15;;;;;;;0.10;0.10;;;;;;;;;;6275915;22;20043;-87
2021/08/10 02:51:41;;;;;;;0.10;0.10;;;;;;;;;;6250576;22;20509;-88
2021/08/10 02:54:08;;;;;;;0.10;0.10;;;;;;;;;;6275523;22;20046;-88
2021/08/10 02:56:34;;;;;;;0.10;0.10;;;;;;;;;;6250288;22;20430;-87
2021/08/10 02:59:03;;;;;;;0.25;0.25;;;;;;;;;;6275833;22;20442;-87
2021/08/10 03:01:30;;;;;;;0.10;0.10;;;;;;;;;;6276148;22;20018;-87
2021/08/10 03:03:57;;;;;;;0.20;0.20;;;;;;;;;;6250192;22;20014;-88
2021/08/10 03:06:23;;;;;;;0.10;0.10;;;;;;;;;;6250509;22;20091;-87
2021/08/10 03:08:52;;;;;;;0.10;0.10;;;;;;;;;;6249912;22;20043;-87
2021/08/10 03:11:18;;;;;;;0.10;0.10;;;;;;;;;;6250353;22;20035;-87
2021/08/10 03:13:45;;;;;;;0.15;0.15;;;;;;;;;;6224832;22;20008;-88
2021/08/10 03:16:13;;;;;;;0.10;0.10;;;;;;;;;;6250844;22;20326;-87
2021/08/10 03:18:39;;;;;;;0.20;0.20;;;;;;;;;;6275632;22;20012;-87
2021/08/10 03:21:05;;;;;;;0.20;0.20;;;;;;;;;;6250110;22;20015;-88
2021/08/10 03:23:33;;;;;;;0.10;0.10;;;;;;;;;;6275844;22;20019;-87
2021/08/10 03:25:59;;;;;;;0.10;0.10;;;;;;;;;;6249968;22;20011;-87
2021/08/10 03:28:26;;;;;;;0.20;0.20;;;;;;;;;;6275472;22;20016;-89
2021/08/10 03:30:52;;;;;;;0.20;0.20;;;;;;;;;;6250191;22;20016;-89
2021/08/10 03:33:18;;;;;;;0.10;0.10;;;;;;;;;;6275671;22;20014;-88
2021/08/10 03:35:44;;;;;;;0.10;0.10;;;;;;;;;;6275821;22;20039;-89
2021/08/10 03:38:10;;;;;;;0.10;0.10;;;;;;;;;;6275533;22;20011;-88
2021/08/10 03:40:39;;;;;;;0.10;0.10;;;;;;;;;;6275237;22;20015;-88
2021/08/10 03:43:05;;;;;;;0.10;0.10;;;;;;;;;;6249749;22;20018;-88
2021/08/10 03:45:35;;;;;;;0.10;0.10;;;;;;;;;;6275277;22;20007;-89
2021/08/10 03:48:01;;;;;;;0.10;0.10;;;;;;;;;;6274864;22;20066;-88
2021/08/10 03:50:27;;;;;;;0.10;0.10;;;;;;;;;;6249230;22;20054;-88
2021/08/10 03:52:53;;;;;;;0.10;0.10;;;;;;;;;;6249716;22;20097;-88
2021/08/10 03:55:19;;;;;;;0.10;0.10;;;;;;;;;;6250065;22;20295;-88
2021/08/10 03:57:48;;;;;;;0.20;0.20;;;;;;;;;;6250144;22;20011;-88
2021/08/10 04:00:15;;;;;;;0.10;0.10;;;;;;;;;;6275550;22;20012;-88
2021/08/10 04:02:41;;;;;;;0.20;0.20;;;;;;;;;;6224256;22;20018;-88
2021/08/10 04:05:07;;;;;;;0.20;0.20;;;;;;;;;;6250026;22;20035;-89
2021/08/10 04:07:34;;;;;;;0.10;0.10;;;;;;;;;;6249445;22;20442;-88
2021/08/10 04:10:02;;;;;;;0.20;0.20;;;;;;;;;;6249560;22;20019;-87
2021/08/10 04:12:28;;;;;;;0.10;0.10;;;;;;;;;;6275061;22;20007;-87
2021/08/10 04:14:54;;;;;;;0.10;0.10;;;;;;;;;;6275459;22;20566;-89
2021/08/10 04:17:23;;;;;;;0.20;0.20;;;;;;;;;;6224199;22;20475;-88
2021/08/10 04:19:52;;;;;;;0.10;0.10;;;;;;;;;;6275135;22;20349;-90
2021/08/10 04:22:19;;;;;;;0.10;0.10;;;;;;;;;;6250791;22;20008;-88
2021/08/10 04:24:45;;;;;;;0.10;0.10;;;;;;;;;;6249359;22;20007;-89
2021/08/10 04:27:14;;;;;;;0.10;0.10;;;;;;;;;;6249909;22;20193;-88
2021/08/10 04:29:40;;;;;;;0.10;0.10;;;;;;;;;;6249198;22;20012;-89
2021/08/10 04:32:07;;;;;;;0.10;0.10;;;;;;;;;;6275048;22;20007;-89
2021/08/10 04:34:34;;;;;;;0.10;0.10;;;;;;;;;;6274770;22;20192;-89
2021/08/10 04:37:00;;;;;;;0.10;0.10;;;;;;;;;;6249553;22;20457;-88
2021/08/10 04:39:26;;;;;;;0.20;0.20;;;;;;;;;;6249670;22;20034;-87
2021/08/10 04:41:55;;;;;;;0.10;0.10;;;;;;;;;;6275061;22;20051;-87
2021/08/10 04:44:22;;;;;;;0.20;0.20;;;;;;;;;;6275248;22;20035;-88
2021/08/10 04:46:48;;;;;;;0.10;0.10;;;;;;;;;;6249301;22;20008;-87
2021/08/10 04:49:14;;;;;;;0.15;0.15;;;;;;;;;;6249304;22;20012;-88
2021/08/10 04:51:40;;;;;;;0.10;0.10;;;;;;;;;;6274565;22;20019;-88
2021/08/10 04:54:06;;;;;;;0.20;0.20;;;;;;;;;;6274873;22;20015;-88
2021/08/10 04:56:32;;;;;;;0.10;0.10;;;;;;;;;;6249828;22;20008;-88
2021/08/10 04:58:58;;;;;;;0.10;0.10;;;;;;;;;;6248700;22;20015;-88
2021/08/10 05:01:24;;;;;;;0.20;0.20;;;;;;;;;;6274795;22;20076;-87
2021/08/10 05:03:50;;;;;;;0.10;0.10;;;;;;;;;;6249225;22;20016;-87
2021/08/10 05:06:16;;;;;;;0.10;0.10;;;;;;;;;;6274675;22;20015;-88
2021/08/10 05:08:42;;;;;;;0.10;0.10;;;;;;;;;;6248777;22;20012;-88
2021/08/10 05:11:09;;;;;;;0.10;0.10;;;;;;;;;;6274653;22;20334;-88
2021/08/10 05:13:35;;;;;;;0.10;0.10;;;;;;;;;;6248880;22;20011;-88
2021/08/10 05:16:01;;;;;;;0.20;0.20;;;;;;;;;;6248891;22;20106;-88
2021/08/10 05:18:28;;;;;;;0.10;0.10;;;;;;;;;;6274390;22;20027;-88
2021/08/10 05:20:54;;;;;;;0.10;0.10;;;;;;;;;;6274568;22;20023;-88
2021/08/10 05:23:20;;;;;;;0.10;0.10;;;;;;;;;;6274739;22;20007;-89
2021/08/10 05:25:46;;;;;;;0.10;0.10;;;;;;;;;;6274225;22;20457;-87
2021/08/10 05:28:12;;;;;;;0.10;0.10;;;;;;;;;;6274458;22;20012;-87
2021/08/10 05:30:38;;;;;;;0.10;0.10;;;;;;;;;;6248812;22;20007;-88
2021/08/10 05:33:04;;;;;;;0.10;0.10;;;;;;;;;;6275874;22;20449;-89
2021/08/10 05:35:31;;;;;;;0.10;0.10;;;;;;;;;;6249090;22;20012;-88
2021/08/10 05:37:57;;;;;;;0.10;0.10;;;;;;;;;;6248609;22;20035;-89
2021/08/10 05:40:23;;;;;;;0.10;0.10;;;;;;;;;;6274356;22;20395;-89
2021/08/10 05:42:49;;;;;;;0.10;0.10;;;;;;;;;;6274419;22;20442;-88
2021/08/10 05:45:15;;;;;;;0.10;0.10;;;;;;;;;;6248685;22;20018;-89
2021/08/10 05:47:41;;;;;;;0.10;0.10;;;;;;;;;;6248755;22;20012;-88
2021/08/10 05:50:07;;;;;;;0.10;0.10;;;;;;;;;;6274863;22;20046;-88
2021/08/10 05:52:33;;;;;;;0.20;0.20;;;;;;;;;;6248921;22;20014;-87
2021/08/10 05:54:59;;;;;;;0.10;0.10;;;;;;;;;;6274073;22;20090;-87
2021/08/10 05:57:25;;;;;;;0.10;0.10;;;;;;;;;;6274172;22;20016;-87
2021/08/10 05:59:51;;;;;;;0.10;0.10;;;;;;;;;;6248535;22;20462;-87
2021/08/10 06:02:17;;;;;;;0.10;0.10;;;;;;;;;;6248469;22;20471;-88
2021/08/10 06:04:43;;;;;;;0.10;0.10;;;;;;;;;;6248931;22;20014;-87
2021/08/10 06:07:09;;;;;;;0.10;0.10;;;;;;;;;;6274874;22;20015;-93
2021/08/10 06:09:35;;;;;;;0.10;0.10;;;;;;;;;;6223892;22;20012;-91
2021/08/10 06:12:01;;;;;;;0.20;0.20;;;;;;;;;;6249554;22;20030;-91
2021/08/10 06:14:28;;;;;;;0.10;0.10;;;;;;;;;;6249649;22;20083;-89
2021/08/10 06:16:56;;;;;;;0.10;0.10;;;;;;;;;;6249443;22;20015;-92
2021/08/10 06:19:23;;;;;;;0.20;0.20;;;;;;;;;;6274674;22;20077;-89
2021/08/10 06:21:51;;;;;;;0.60;0.20;;;;;;;;;;6249306;22;20024;-92
2021/08/10 06:24:18;;;;;;;0.13;0.13;;;;;;;;;;6249867;22;20437;-92
2021/08/10 06:26:44;;;;;;;0.10;0.10;;;;;;;;;;6273274;22;20036;-91
2021/08/10 06:29:11;;;;;;;0.25;0.25;;;;;;;;;;6248331;22;20007;-94
2021/08/10 06:31:37;;;;;;;0.10;0.10;;;;;;;;;;6248663;22;20022;-94
2021/08/10 06:34:03;;;;;;;0.20;0.20;;;;;;;;;;6249568;22;20022;-92
2021/08/10 06:36:29;;;;;;;0.10;0.10;;;;;;;;;;6250888;22;20012;-92
2021/08/10 06:38:55;;;;;;;0.20;0.20;;;;;;;;;;6275231;22;20072;-93
2021/08/10 06:41:21;;;;;;;0.20;0.20;;;;;;;;;;6249494;22;20158;-91
2021/08/10 06:43:47;;;;;;;0.10;0.10;;;;;;;;;;6224343;22;20012;-90
2021/08/10 06:46:13;;;;;;;0.20;0.20;;;;;;;;;;6248914;22;20014;-87
2021/08/10 06:48:39;;;;;;;0.10;0.10;;;;;;;;;;6272348;22;20137;-87
2021/08/10 06:51:05;;;;;;;0.13;0.13;;;;;;;;;;6274069;22;20011;-86
2021/08/10 06:53:31;;;;;;;0.10;0.10;;;;;;;;;;6275384;22;20380;-86
2021/08/10 06:55:57;;;;;;;0.10;0.10;;;;;;;;;;6248207;22;20057;-87
2021/08/10 06:58:23;;;;;;;0.10;0.10;;;;;;;;;;6274025;22;20008;-87
2021/08/10 07:00:49;;;;;;;0.20;0.20;;;;;;;;;;6273805;22;20020;-87
2021/08/10 07:03:15;;;;;;;0.10;0.10;;;;;;;;;;6273919;22;20007;-86
2021/08/10 07:05:41;;;;;;;0.10;0.10;;;;;;;;;;6273389;22;20011;-87
2021/08/10 07:08:07;;;;;;;0.20;0.20;;;;;;;;;;6247894;22;20058;-86
2021/08/10 07:10:33;;;;;;;0.10;0.10;;;;;;;;;;6275145;22;20441;-87
2021/08/10 07:12:59;;;;;;;0.28;0.28;;;;;;;;;;6273854;22;20023;-86
2021/08/10 07:15:25;;;;;;;0.20;0.20;;;;;;;;;;6273715;22;20035;-86
2021/08/10 07:17:51;;;;;;;0.10;0.10;;;;;;;;;;6274921;22;20283;-86
2021/08/10 07:20:19;;;;;;;0.20;0.20;;;;;;;;;;6273384;22;20118;-87
2021/08/10 07:22:45;;;;;;;0.10;0.10;;;;;;;;;;6274563;22;20016;-87
2021/08/10 07:25:11;;;;;;;0.20;0.20;;;;;;;;;;6275007;22;20022;-87
2021/08/10 07:27:37;;;;;;;0.10;0.10;;;;;;;;;;6275336;22;20145;-87
2021/08/10 07:30:03;;;;;;;0.45;0.45;;;;;;;;;;6274561;22;20445;-88
2021/08/10 07:32:29;;;;;;;0.20;0.20;;;;;;;;;;6275633;22;20011;-87
2021/08/10 07:34:55;;;;;;;0.10;0.10;;;;;;;;;;6249635;22;20445;-87
2021/08/10 07:37:21;;;;;;;0.10;0.10;;;;;;;;;;6275164;22;20050;-87
2021/08/10 07:39:47;;;;;;;0.20;0.20;;;;;;;;;;6274592;22;20051;-87
2021/08/10 07:42:13;;;;;;;0.10;0.10;;;;;;;;;;6275213;22;20008;-88
2021/08/10 07:44:39;;;;;;;0.20;0.20;;;;;;;;;;6224252;22;20026;-86
2021/08/10 07:47:06;;;;;;;0.10;0.10;;;;;;;;;;6276657;22;20019;-87
2021/08/10 07:49:34;;;;;;;0.10;0.10;;;;;;;;;;6249993;22;20091;-90
2021/08/10 07:52:00;;;;;;;0.10;0.10;;;;;;;;;;6250280;22;20012;-87
2021/08/10 07:54:26;;;;;;;0.20;0.20;;;;;;;;;;6276557;22;20333;-86
2021/08/10 07:56:52;;;;;;;0.17;0.17;;;;;;;;;;6275161;22;20043;-86
2021/08/10 07:59:18;;;;;;;0.10;0.10;;;;;;;;;;6275282;22;20015;-86
2021/08/10 08:01:45;;;;;;;0.10;0.10;;;;;;;;;;6249915;22;20016;-86
2021/08/10 08:04:11;;;;;;;0.20;0.20;;;;;;;;;;6275246;22;20039;-87
2021/08/10 08:06:37;;;;;;;0.10;0.10;;;;;;;;;;6275216;22;20011;-87
2021/08/10 08:09:03;;;;;;;0.20;0.20;;;;;;;;;;6275274;22;20016;-87
2021/08/10 08:11:29;;;;;;;0.10;0.10;;;;;;;;;;6275055;22;20034;-88
2021/08/10 08:13:55;;;;;;;0.10;0.10;;;;;;;;;;6224220;22;20058;-87
2021/08/10 08:16:21;;;;;;;0.20;0.20;;;;;;;;;;6249667;22;20011;-86
2021/08/10 08:18:47;;;;;;;0.10;0.10;;;;;;;;;;6275572;22;20081;-86
2021/08/10 08:21:14;;;;;;;0.20;0.20;;;;;;;;;;6249677;22;20515;-86
2021/08/10 08:23:40;;;;;;;0.20;0.20;;;;;;;;;;6249271;22;20016;-87
2021/08/10 08:26:07;;;;;;;0.10;0.10;;;;;;;;;;6249048;22;20007;-86
2021/08/10 08:28:33;;;;;;;0.20;0.20;;;;;;;;;;6274700;22;20101;-86
2021/08/10 08:31:01;;;;;;;0.10;0.10;;;;;;;;;;6249236;22;20046;-86
2021/08/10 08:33:27;;;;;;;0.63;0.63;;;;;;;;;;6274806;22;20337;-87
2021/08/10 08:35:53;;;;;;;0.30;0.30;;;;;;;;;;6274905;22;20086;-87
2021/08/10 08:38:20;;;;;;;0.20;0.20;;;;;;;;;;6249001;22;20016;-88
2021/08/10 08:40:47;;;;;;;0.10;0.10;;;;;;;;;;6249240;22;20468;-88
2021/08/10 08:43:13;;;;;;;0.13;0.13;;;;;;;;;;6274867;22;20011;-87
2021/08/10 08:45:42;;;;;;;0.40;0.40;;;;;;;;;;6249632;22;20322;-89
2021/08/10 08:48:11;;;;;;;0.20;0.20;;;;;;;;;;6274480;22;20368;-88
2021/08/10 08:50:37;;;;;;;1.00;0.90;;;;;;;;;;6274516;22;20039;-88
2021/08/10 08:53:04;;;;;;;0.25;0.25;;;;;;;;;;6274923;22;20015;-85
2021/08/10 08:55:30;;;;;;;0.17;0.17;;;;;;;;;;6275234;22;20117;-88
2021/08/10 08:57:56;;;;;;;0.20;0.20;;;;;;;;;;6248669;22;20449;-88
2021/08/10 09:00:22;;;;;;;0.30;0.30;;;;;;;;;;6275080;22;20075;-88
2021/08/10 09:02:48;;;;;;;0.10;0.10;;;;;;;;;;6274651;22;20008;-88
2021/08/10 09:05:14;;;;;;;0.30;0.30;;;;;;;;;;6274695;22;20380;-88
2021/08/10 09:07:40;;;;;;;0.30;0.30;;;;;;;;;;6275284;22;20015;-88
2021/08/10 09:10:07;;;;;;;0.30;0.30;;;;;;;;;;6248923;22;20460;-89
2021/08/10 09:12:42;;;;;;;0.15;0.15;;;;;;;;;;6275975;22;20442;-89
2021/08/10 09:15:09;;;;;;;0.60;0.40;;;;;;;;;;6249350;22;20007;-89
2021/08/10 09:17:35;;;;;;;0.17;0.17;;;;;;;;;;6249275;22;20057;-88
2021/08/10 09:20:03;;;;;;;0.60;0.60;;;;;;;;;;6249410;22;20038;-86
2021/08/10 09:22:31;;;;;;;0.15;0.15;;;;;;;;;;6275747;22;20453;-88
2021/08/10 09:24:57;;;;;;;0.20;0.20;;;;;;;;;;6274406;22;20012;-86
2021/08/10 09:27:24;;;;;;;0.20;0.20;;;;;;;;;;6274027;22;20016;-87
2021/08/10 09:29:50;;;;;;;0.10;0.10;;;;;;;;;;6274249;22;20341;-88
2021/08/10 09:32:16;;;;;;;0.20;0.20;;;;;;;;;;6274474;22;20012;-88
2021/08/10 09:34:42;;;;;;;0.20;0.20;;;;;;;;;;6275826;22;20015;-87
2021/08/10 09:37:15;;;;;;;0.10;0.10;;;;;;;;;;6248650;22;20315;-86
2021/08/10 09:39:43;;;;;;;0.20;0.20;;;;;;;;;;6273639;22;20450;-88
2021/08/10 09:42:11;;;;;;;0.30;0.30;;;;;;;;;;6274211;22;20007;-89
2021/08/10 09:44:40;;;;;;;0.20;0.20;;;;;;;;;;6248747;22;20061;-89
2021/08/10 09:47:06;;;;;;;0.10;0.10;;;;;;;;;;6274056;22;20064;-89
2021/08/10 09:49:45;;;;;;;0.15;0.15;;;;;;;;;;6248219;22;20023;-88
2021/08/10 09:52:32;;;;;;;0.28;0.20;;;;;;;;;;6277354;22;20306;-90
2021/08/10 09:55:12;;;;;;;0.20;0.20;;;;;;;;;;6251002;22;20035;-90
2021/08/10 09:57:40;;;;;;;0.20;0.20;;;;;;;;;;6250124;22;20463;-90
2021/08/10 10:00:06;;;;;;;0.20;0.20;;;;;;;;;;6249881;22;20018;-88
2021/08/10 10:02:32;;;;;;;0.17;0.17;;;;;;;;;;6274452;22;20011;-89
2021/08/10 10:04:58;;;;;;;0.20;0.20;;;;;;;;;;6274338;22;20044;-89
2021/08/10 10:07:25;;;;;;;0.17;0.17;;;;;;;;;;6275559;22;20412;-89
2021/08/10 10:09:51;;;;;;;0.22;0.22;;;;;;;;;;6274551;22;20016;-90
2021/08/10 10:12:19;;;;;;;0.20;0.20;;;;;;;;;;6223664;22;20012;-89
2021/08/10 10:14:46;;;;;;;0.20;0.20;;;;;;;;;;6250621;22;20442;-89
2021/08/10 10:17:12;;;;;;;0.20;0.20;;;;;;;;;;6249528;22;20011;-88
2021/08/10 10:19:39;;;;;;;0.10;0.10;;;;;;;;;;6249431;22;20499;-90
2021/08/10 10:22:14;;;;;;;0.10;0.10;;;;;;;;;;6249288;22;20437;-91
2021/08/10 10:24:40;;;;;;;0.20;0.20;;;;;;;;;;6260661;22;20011;-88
2021/08/10 10:27:07;;;;;;;0.10;0.10;;;;;;;;;;6274052;22;20102;-89
2021/08/10 10:29:33;;;;;;;0.10;0.10;;;;;;;;;;6247875;22;20012;-89
2021/08/10 10:31:59;;;;;;;0.20;0.20;;;;;;;;;;6247697;22;20090;-88
2021/08/10 10:34:25;;;;;;;0.20;0.20;;;;;;;;;;6274217;22;20093;-89
2021/08/10 10:36:51;;;;;;;0.20;0.20;;;;;;;;;;6247670;22;20388;-89
2021/08/10 10:39:23;;;;;;;0.10;0.10;;;;;;;;;;6275352;22;20019;-89
2021/08/10 10:41:49;;;;;;;;;;;;;;;;;;6275910;22;20039;-90
2021/08/10 10:44:15;;;;;;;0.20;0.20;;;;;;;;;;6275163;22;19915;-89
2021/08/10 10:46:41;;;;;;;0.10;0.10;;;;;;;;;;6273610;22;20442;-88
2021/08/10 10:49:08;;;;;;;0.15;0.15;;;;;;;;;;6273841;22;20012;-89
2021/08/10 10:51:38;;;;;;;0.13;0.13;;;;;;;;;;6273907;22;20085;-89
2021/08/10 10:54:26;;;;;;;0.10;0.10;;;;;;;;;;6273796;22;20012;-89
2021/08/10 10:57:01;;;;;;;0.20;0.20;;;;;;;;;;6248964;22;20381;-92
2021/08/10 10:59:28;;;;;;;0.10;0.10;;;;;;;;;;6259798;22;20015;-89
2021/08/10 11:02:13;;;;;;;0.10;0.10;;;;;;;;;;6275957;22;20008;-89
2021/08/10 11:04:39;;;;;;;0.10;0.10;;;;;;;;;;6277018;22;20012;-89
2021/08/10 11:07:24;;;;;;;0.20;0.20;;;;;;;;;;6249978;22;20064;-89
2021/08/10 11:09:50;;;;;;;0.20;0.20;;;;;;;;;;6277376;22;20015;-88
2021/08/10 11:12:41;;;;;;;0.10;0.10;;;;;;;;;;6277895;22;20008;-91
2021/08/10 11:15:07;;;;;;;0.28;0.28;;;;;;;;;;6252860;22;20061;-89
2021/08/10 11:17:35;;;;;;;0.20;0.20;;;;;;;;;;6275824;22;20078;-88
2021/08/10 11:20:02;;;;;;;0.10;0.10;;;;;;;;;;6250371;22;20008;-89
2021/08/10 11:22:28;;;;;;;0.10;0.10;;;;;;;;;;6250040;22;20020;-88
2021/08/10 11:24:56;;;;;;;0.10;0.10;;;;;;;;;;6250293;22;20038;-89
2021/08/10 11:27:28;;;;;;;0.20;0.20;;;;;;;;;;6249735;22;20461;-89
2021/08/10 11:29:54;;;;;;;0.20;0.20;;;;;;;;;;6275337;22;20007;-89
2021/08/10 11:32:40;;;;;;;0.28;0.28;;;;;;;;;;6276801;22;20012;-89
2021/08/10 11:35:24;;;;;;;0.20;0.20;;;;;;;;;;6249519;22;20095;-89
2021/08/10 11:38:09;;;;;;;0.15;0.15;;;;;;;;;;6275122;22;20015;-89
2021/08/10 11:40:51;;;;;;;0.10;0.10;;;;;;;;;;6277336;22;20073;-89
2021/08/10 11:43:17;;;;;;;0.20;0.20;;;;;;;;;;6275521;22;20043;-89
2021/08/10 11:45:43;;;;;;;0.20;0.20;;;;;;;;;;6250300;22;20023;-89
2021/08/10 11:48:09;;;;;;;0.85;0.30;;;;;;;;;;6275318;22;20020;-89
2021/08/10 11:50:35;;;;;;;0.10;0.10;;;;;;;;;;6275368;22;20348;-89
2021/08/10 11:53:02;;;;;;;0.10;0.10;;;;;;;;;;6275621;22;20019;-89
2021/08/10 11:55:29;;;;;;;0.10;0.10;;;;;;;;;;6249998;22;20032;-89
2021/08/10 11:57:55;;;;;;;0.10;0.10;;;;;;;;;;6249952;22;20468;-89
2021/08/10 12:00:22;;;;;;;0.20;0.20;;;;;;;;;;6250267;22;20022;-89
2021/08/10 12:02:48;;;;;;;0.20;0.20;;;;;;;;;;6275650;22;20012;-89
2021/08/10 12:05:14;;;;;;;0.50;0.50;;;;;;;;;;6250097;22;20014;-89
2021/08/10 12:07:47;;;;;;;0.10;0.10;;;;;;;;;;6275193;22;20449;-89
2021/08/10 12:10:13;;;;;;;0.20;0.20;;;;;;;;;;6249761;22;20011;-89
2021/08/10 12:12:39;;;;;;;0.10;0.10;;;;;;;;;;6249808;22;20089;-89
2021/08/10 12:15:05;;;;;;;2.35;0.40;;;;;;;;;;6275311;22;20058;-89
2021/08/10 12:17:31;;;;;;;0.20;0.20;;;;;;;;;;6249846;22;20012;-89
2021/08/10 12:19:57;;;;;;;0.20;0.20;;;;;;;;;;6276785;22;20342;-88
2021/08/10 12:22:27;;;;;;;0.30;0.30;;;;;;;;;;6249688;22;20015;-89
2021/08/10 12:24:56;;;;;;;0.30;0.30;;;;;;;;;;6275459;22;20086;-89
2021/08/10 12:27:30;;;;;;;0.10;0.10;;;;;;;;;;6250053;22;20070;-88
2021/08/10 12:29:56;;;;;;;0.17;0.17;;;;;;;;;;6223996;22;20008;-88
2021/08/10 12:32:22;;;;;;;0.30;0.30;;;;;;;;;;6275301;22;20018;-88
2021/08/10 12:34:48;;;;;;;0.20;0.20;;;;;;;;;;6276717;22;20039;-88
2021/08/10 12:37:14;;;;;;;0.22;0.22;;;;;;;;;;6275358;22;20019;-89
2021/08/10 12:39:42;;;;;;;0.30;0.30;;;;;;;;;;6250108;22;20064;-89
2021/08/10 12:42:08;;;;;;;0.20;0.20;;;;;;;;;;6274653;22;20008;-89
2021/08/10 12:44:34;;;;;;;0.20;0.20;;;;;;;;;;6271305;22;20011;-88
2021/08/10 12:47:01;;;;;;;0.22;0.22;;;;;;;;;;6249210;22;20050;-88
2021/08/10 12:49:34;;;;;;;0.25;0.25;;;;;;;;;;6248785;22;20315;-88
2021/08/10 12:52:03;;;;;;;0.20;0.20;;;;;;;;;;6274533;22;20076;-88
2021/08/10 12:54:30;;;;;;;0.20;0.20;;;;;;;;;;6276767;22;20078;-88
2021/08/10 12:56:56;;;;;;;0.20;0.20;;;;;;;;;;6276022;22;20038;-88
2021/08/10 12:59:38;;;;;;;0.50;0.50;;;;;;;;;;6274874;22;20043;-88
2021/08/10 13:02:04;;;;;;;0.20;0.20;;;;;;;;;;6248971;22;20011;-88
2021/08/10 13:04:30;;;;;;;0.30;0.30;;;;;;;;;;6274085;22;20450;-88
2021/08/10 13:06:56;;;;;;;0.20;0.20;;;;;;;;;;6274539;22;20008;-88
2021/08/10 13:09:22;;;;;;;0.20;0.20;;;;;;;;;;6273729;22;20322;-88
2021/08/10 13:11:48;;;;;;;0.20;0.20;;;;;;;;;;6248121;22;20041;-87
2021/08/10 13:14:14;;;;;;;0.20;0.20;;;;;;;;;;6249025;22;20007;-87
2021/08/10 13:16:41;;;;;;;0.20;0.20;;;;;;;;;;6275735;22;20049;-87
2021/08/10 13:19:13;;;;;;;0.10;0.10;;;;;;;;;;6248664;22;20011;-89
2021/08/10 13:21:43;;;;;;;1.00;1.00;;;;;;;;;;6248707;22;20011;-89
2021/08/10 13:24:09;;;;;;;0.15;0.15;;;;;;;;;;6274311;22;20012;-89
2021/08/10 13:26:45;;;;;;;0.20;0.20;;;;;;;;;;6274079;22;20012;-88
2021/08/10 13:29:12;;;;;;;0.20;0.20;;;;;;;;;;6284364;22;20015;-88
2021/08/10 13:31:46;;;;;;;0.30;0.30;;;;;;;;;;6274394;22;20014;-87
2021/08/10 13:34:12;;;;;;;0.20;0.20;;;;;;;;;;6274281;22;20457;-87
2021/08/10 13:36:38;;;;;;;0.20;0.20;;;;;;;;;;6274061;22;20437;-88
2021/08/10 13:39:04;;;;;;;0.20;0.20;;;;;;;;;;6274360;22;20015;-88
2021/08/10 13:41:31;;;;;;;0.25;0.20;;;;;;;;;;6274439;22;20015;-88
2021/08/10 13:43:57;;;;;;;0.30;0.30;;;;;;;;;;6275616;22;20346;-87
2021/08/10 13:46:28;;;;;;;0.30;0.30;;;;;;;;;;6248557;22;20035;-87
2021/08/10 13:48:54;;;;;;;0.10;0.10;;;;;;;;;;6248639;22;20094;-88
2021/08/10 13:51:20;;;;;;;0.10;0.10;;;;;;;;;;6273527;22;20023;-88
2021/08/10 13:53:46;;;;;;;0.40;0.40;;;;;;;;;;6274392;22;20035;-88
2021/08/10 13:56:12;;;;;;;0.20;0.20;;;;;;;;;;6248331;22;20012;-87
2021/08/10 13:58:38;;;;;;;0.20;0.20;;;;;;;;;;6275458;22;20019;-90
2021/08/10 14:01:15;;;;;;;0.10;0.10;;;;;;;;;;6275566;22;20036;-88
2021/08/10 14:03:41;;;;;;;0.10;0.10;;;;;;;;;;6249972;22;20019;-89
2021/08/10 14:06:07;;;;;;;0.20;0.20;;;;;;;;;;6273791;22;20012;-88
2021/08/10 14:08:34;;;;;;;0.20;0.20;;;;;;;;;;6249287;22;20058;-89
2021/08/10 14:11:01;;;;;;;0.10;0.10;;;;;;;;;;6251489;22;20018;-89
2021/08/10 14:13:27;;;;;;;0.20;0.20;;;;;;;;;;6248310;22;20337;-89
2021/08/10 14:15:53;;;;;;;0.10;0.10;;;;;;;;;;6274074;22;20007;-89
2021/08/10 14:18:19;;;;;;;0.10;0.10;;;;;;;;;;6248416;22;20008;-88
2021/08/10 14:20:45;;;;;;;0.20;0.20;;;;;;;;;;6273193;22;20018;-89
2021/08/10 14:23:11;;;;;;;0.20;0.20;;;;;;;;;;6273826;22;20464;-88
2021/08/10 14:25:37;;;;;;;0.10;0.10;;;;;;;;;;6273882;22;20018;-88
2021/08/10 14:28:03;;;;;;;0.30;0.20;;;;;;;;;;6273578;22;20008;-88
2021/08/10 14:30:31;;;;;;;0.20;0.20;;;;;;;;;;6273882;22;20511;-89
2021/08/10 14:32:57;;;;;;;0.10;0.10;;;;;;;;;;6276826;22;20012;-89
2021/08/10 14:35:24;;;;;;;0.10;0.10;;;;;;;;;;6277173;22;20097;-89
2021/08/10 14:37:50;;;;;;;0.20;0.20;;;;;;;;;;6251373;22;20023;-89
2021/08/10 14:40:16;;;;;;;0.20;0.20;;;;;;;;;;6251643;22;20019;-89
2021/08/10 14:42:43;;;;;;;0.20;0.20;;;;;;;;;;6251615;22;20020;-89
2021/08/10 14:45:09;;;;;;;0.20;0.20;;;;;;;;;;6251804;22;20003;-90